Big Spring, Illinois
Current Conditions -  °F | °C
As of 2:53 AM on Saturday 20 Dec 2014 (Local Time) from KMTO Reporting Station
Overcast Overcast  
Wind Chill: 29°   Ceiling: 5000
Heat Index: 29°   Visibility: 10mi
Dew Point: 24°   Wind: 3mph
Humidity: 82%   Direction: 110°ESE
Pressure: 30.26"   Gusts: NA
Location:  39.3144°N, 88.4504°W
Report Text: KMTO 200853Z AUTO 11003KT 10SM OVC050 M02/M04 A3026 RMK AO2 SLP254 T10171044 58003
Loading
Personal Weather Stations






























Interactive Weather Map New forecast layout! Learn more

10-Day Weather Forecast

Advertisements
Track Severe Weather on mobile